sensor_id;sensor_type;location;lat;lon;timestamp;pressure;altitude;pressure_sealevel;temperature;humidity
9935;BME280;5006;41.828;23.478;2022-08-11T00:00:19;90497.16;;;19.83;68.81
9935;BME280;5006;41.828;23.478;2022-08-11T00:01:27;90490.38;;;20.12;67.71
9935;BME280;5006;41.828;23.478;2022-08-11T00:02:35;90500.88;;;20.35;67.13
9935;BME280;5006;41.828;23.478;2022-08-11T00:03:49;90498.19;;;20.23;67.20
9935;BME280;5006;41.828;23.478;2022-08-11T00:05:03;90497.66;;;20.49;65.97
9935;BME280;5006;41.828;23.478;2022-08-11T00:06:11;90498.66;;;20.77;65.17
9935;BME280;5006;41.828;23.478;2022-08-11T00:07:18;90499.66;;;20.70;65.28
9935;BME280;5006;41.828;23.478;2022-08-11T00:08:27;90500.09;;;20.69;65.40
9935;BME280;5006;41.828;23.478;2022-08-11T00:09:35;90497.28;;;20.60;65.52
9935;BME280;5006;41.828;23.478;2022-08-11T00:10:41;90502.59;;;20.76;65.25
9935;BME280;5006;41.828;23.478;2022-08-11T00:11:50;90497.66;;;20.49;66.10
9935;BME280;5006;41.828;23.478;2022-08-11T00:12:59;90497.25;;;20.51;66.88
9935;BME280;5006;41.828;23.478;2022-08-11T00:14:13;90501.22;;;20.59;66.72
9935;BME280;5006;41.828;23.478;2022-08-11T00:15:20;90509.47;;;20.68;66.75
9935;BME280;5006;41.828;23.478;2022-08-11T00:16:26;90498.28;;;20.32;67.78
9935;BME280;5006;41.828;23.478;2022-08-11T00:17:34;90507.22;;;20.32;68.50
9935;BME280;5006;41.828;23.478;2022-08-11T00:18:40;90508.84;;;20.30;68.16
9935;BME280;5006;41.828;23.478;2022-08-11T00:19:48;90502.19;;;20.43;66.67
9935;BME280;5006;41.828;23.478;2022-08-11T00:20:57;90501.41;;;19.96;67.11
9935;BME280;5006;41.828;23.478;2022-08-11T00:22:04;90505.00;;;19.81;68.01
9935;BME280;5006;41.828;23.478;2022-08-11T00:23:13;90492.50;;;19.71;68.46
9935;BME280;5006;41.828;23.478;2022-08-11T00:24:19;90500.00;;;19.79;68.49
9935;BME280;5006;41.828;23.478;2022-08-11T00:25:26;90495.91;;;20.21;67.17
9935;BME280;5006;41.828;23.478;2022-08-11T00:26:32;90490.69;;;20.14;67.98
9935;BME280;5006;41.828;23.478;2022-08-11T00:27:40;90496.50;;;20.04;68.86
9935;BME280;5006;41.828;23.478;2022-08-11T00:28:45;90493.44;;;19.89;70.38
9935;BME280;5006;41.828;23.478;2022-08-11T00:29:52;90501.63;;;19.65;71.97
9935;BME280;5006;41.828;23.478;2022-08-11T00:31:00;90497.25;;;19.92;71.88
9935;BME280;5006;41.828;23.478;2022-08-11T00:32:12;90502.09;;;19.63;72.68
9935;BME280;5006;41.828;23.478;2022-08-11T00:33:24;90492.94;;;19.70;72.66
9935;BME280;5006;41.828;23.478;2022-08-11T00:34:33;90494.16;;;19.44;74.25
9935;BME280;5006;41.828;23.478;2022-08-11T00:35:40;90499.59;;;19.44;75.29
9935;BME280;5006;41.828;23.478;2022-08-11T00:36:49;90492.16;;;19.81;73.85
9935;BME280;5006;41.828;23.478;2022-08-11T00:37:56;90491.03;;;19.91;72.74
9935;BME280;5006;41.828;23.478;2022-08-11T00:39:05;90493.22;;;19.96;72.78
9935;BME280;5006;41.828;23.478;2022-08-11T00:40:20;90496.84;;;19.93;73.42
9935;BME280;5006;41.828;23.478;2022-08-11T00:41:33;90491.25;;;20.09;72.49
9935;BME280;5006;41.828;23.478;2022-08-11T00:42:47;90490.06;;;20.44;70.91
9935;BME280;5006;41.828;23.478;2022-08-11T00:44:15;90498.97;;;20.57;69.85
9935;BME280;5006;41.828;23.478;2022-08-11T00:45:28;90493.09;;;20.25;70.86
9935;BME280;5006;41.828;23.478;2022-08-11T00:46:44;90489.41;;;20.40;70.82
9935;BME280;5006;41.828;23.478;2022-08-11T00:48:02;90491.50;;;20.70;69.60
9935;BME280;5006;41.828;23.478;2022-08-11T00:49:17;90498.31;;;20.75;69.06
9935;BME280;5006;41.828;23.478;2022-08-11T00:50:38;90487.16;;;20.60;69.97
9935;BME280;5006;41.828;23.478;2022-08-11T00:51:59;90485.97;;;20.83;69.85
9935;BME280;5006;41.828;23.478;2022-08-11T00:53:24;90497.28;;;20.81;69.99
9935;BME280;5006;41.828;23.478;2022-08-11T00:55:06;90498.84;;;20.82;69.57
9935;BME280;5006;41.828;23.478;2022-08-11T00:56:56;90497.09;;;20.88;69.10
9935;BME280;5006;41.828;23.478;2022-08-11T00:58:47;90492.44;;;20.98;68.79
9935;BME280;5006;41.828;23.478;2022-08-11T01:00:11;90492.63;;;20.82;69.21
9935;BME280;5006;41.828;23.478;2022-08-11T01:01:26;90497.34;;;21.03;68.54
9935;BME280;5006;41.828;23.478;2022-08-11T01:02:46;90494.28;;;21.01;68.58
9935;BME280;5006;41.828;23.478;2022-08-11T01:04:15;90498.16;;;20.91;69.07
9935;BME280;5006;41.828;23.478;2022-08-11T01:05:40;90500.72;;;20.85;69.27
9935;BME280;5006;41.828;23.478;2022-08-11T01:10:13;90495.03;;;21.01;70.51
9935;BME280;5006;41.828;23.478;2022-08-11T01:13:15;90491.50;;;20.92;69.98
9935;BME280;5006;41.828;23.478;2022-08-11T01:16:25;90500.22;;;20.65;70.45
9935;BME280;5006;41.828;23.478;2022-08-11T01:19:47;90492.19;;;20.83;69.45
9935;BME280;5006;41.828;23.478;2022-08-11T01:21:23;90500.34;;;21.26;68.65
9935;BME280;5006;41.828;23.478;2022-08-11T01:24:56;90499.00;;;20.66;70.36
9935;BME280;5006;41.828;23.478;2022-08-11T01:26:40;90498.06;;;20.60;70.41
9935;BME280;5006;41.828;23.478;2022-08-11T01:31:43;90483.72;;;20.47;70.83
9935;BME280;5006;41.828;23.478;2022-08-11T01:35:29;90484.06;;;20.49;69.59
9935;BME280;5006;41.828;23.478;2022-08-11T01:36:54;90478.22;;;20.81;68.82
9935;BME280;5006;41.828;23.478;2022-08-11T01:41:40;90494.13;;;20.61;69.63
9935;BME280;5006;41.828;23.478;2022-08-11T01:43:38;90488.69;;;20.83;69.01
9935;BME280;5006;41.828;23.478;2022-08-11T01:45:19;90482.22;;;20.46;70.25
9935;BME280;5006;41.828;23.478;2022-08-11T01:46:31;90489.88;;;20.39;70.66
9935;BME280;5006;41.828;23.478;2022-08-11T01:47:41;90490.00;;;20.35;71.28
9935;BME280;5006;41.828;23.478;2022-08-11T01:49:02;90485.84;;;20.31;72.31
9935;BME280;5006;41.828;23.478;2022-08-11T01:50:20;90486.34;;;20.04;72.99
9935;BME280;5006;41.828;23.478;2022-08-11T01:51:43;90481.25;;;20.40;72.92
9935;BME280;5006;41.828;23.478;2022-08-11T01:53:02;90486.41;;;19.67;74.38
9935;BME280;5006;41.828;23.478;2022-08-11T01:54:20;90479.63;;;19.96;74.12
9935;BME280;5006;41.828;23.478;2022-08-11T01:55:38;90484.06;;;19.90;74.74
9935;BME280;5006;41.828;23.478;2022-08-11T01:56:52;90486.94;;;20.33;73.32
9935;BME280;5006;41.828;23.478;2022-08-11T01:58:06;90487.16;;;20.39;73.00
9935;BME280;5006;41.828;23.478;2022-08-11T01:59:16;90490.69;;;20.27;73.55
9935;BME280;5006;41.828;23.478;2022-08-11T02:00:26;90481.00;;;20.47;72.42
9935;BME280;5006;41.828;23.478;2022-08-11T02:01:43;90474.59;;;20.41;71.27
9935;BME280;5006;41.828;23.478;2022-08-11T02:02:58;90480.53;;;20.27;71.14
9935;BME280;5006;41.828;23.478;2022-08-11T02:04:14;90478.19;;;20.04;71.73
9935;BME280;5006;41.828;23.478;2022-08-11T02:05:28;90474.72;;;20.04;71.57
9935;BME280;5006;41.828;23.478;2022-08-11T02:06:43;90467.09;;;19.86;72.36
9935;BME280;5006;41.828;23.478;2022-08-11T02:08:09;90476.13;;;19.96;72.05
9935;BME280;5006;41.828;23.478;2022-08-11T02:11:00;90472.09;;;20.13;71.42
9935;BME280;5006;41.828;23.478;2022-08-11T02:12:38;90469.00;;;20.23;70.95
9935;BME280;5006;41.828;23.478;2022-08-11T02:13:50;90468.75;;;20.30;70.16
9935;BME280;5006;41.828;23.478;2022-08-11T02:15:09;90469.22;;;20.50;69.63
9935;BME280;5006;41.828;23.478;2022-08-11T02:16:32;90478.88;;;20.64;69.29
9935;BME280;5006;41.828;23.478;2022-08-11T02:17:58;90473.84;;;20.84;68.76
9935;BME280;5006;41.828;23.478;2022-08-11T02:19:17;90477.16;;;21.00;68.55
9935;BME280;5006;41.828;23.478;2022-08-11T02:20:45;90474.75;;;21.02;67.96
9935;BME280;5006;41.828;23.478;2022-08-11T02:22:19;90468.31;;;20.87;69.19
9935;BME280;5006;41.828;23.478;2022-08-11T02:23:50;90467.81;;;20.67;71.37
9935;BME280;5006;41.828;23.478;2022-08-11T02:25:00;90471.88;;;20.41;72.20
9935;BME280;5006;41.828;23.478;2022-08-11T02:26:15;90471.56;;;20.61;71.29
9935;BME280;5006;41.828;23.478;2022-08-11T02:27:26;90468.97;;;20.57;70.94
9935;BME280;5006;41.828;23.478;2022-08-11T02:29:00;90462.75;;;20.35;71.70
9935;BME280;5006;41.828;23.478;2022-08-11T02:30:11;90468.59;;;20.12;73.57
9935;BME280;5006;41.828;23.478;2022-08-11T02:31:24;90464.59;;;20.38;72.62
9935;BME280;5006;41.828;23.478;2022-08-11T02:32:57;90471.47;;;20.30;73.03
9935;BME280;5006;41.828;23.478;2022-08-11T02:34:30;90465.00;;;20.15;73.69
9935;BME280;5006;41.828;23.478;2022-08-11T02:35:41;90462.13;;;20.74;73.22
9935;BME280;5006;41.828;23.478;2022-08-11T02:36:54;90465.44;;;20.69;71.92
9935;BME280;5006;41.828;23.478;2022-08-11T02:38:13;90466.69;;;20.34;72.71
9935;BME280;5006;41.828;23.478;2022-08-11T02:39:22;90468.81;;;20.18;72.22
9935;BME280;5006;41.828;23.478;2022-08-11T02:40:45;90464.66;;;20.13;71.89
9935;BME280;5006;41.828;23.478;2022-08-11T02:41:57;90472.16;;;20.22;71.79
9935;BME280;5006;41.828;23.478;2022-08-11T02:43:28;90462.88;;;19.85;73.30
9935;BME280;5006;41.828;23.478;2022-08-11T02:44:43;90467.44;;;19.88;73.85
9935;BME280;5006;41.828;23.478;2022-08-11T02:46:00;90470.69;;;20.08;73.98
9935;BME280;5006;41.828;23.478;2022-08-11T02:47:13;90471.31;;;20.12;72.83
9935;BME280;5006;41.828;23.478;2022-08-11T02:48:35;90470.16;;;19.88;75.72
9935;BME280;5006;41.828;23.478;2022-08-11T02:50:04;90468.22;;;20.57;73.36
9935;BME280;5006;41.828;23.478;2022-08-11T02:51:24;90469.16;;;20.07;73.96
9935;BME280;5006;41.828;23.478;2022-08-11T02:52:45;90459.50;;;19.81;76.46
9935;BME280;5006;41.828;23.478;2022-08-11T02:54:04;90468.78;;;19.59;76.46
9935;BME280;5006;41.828;23.478;2022-08-11T02:55:18;90468.13;;;19.55;77.86
9935;BME280;5006;41.828;23.478;2022-08-11T02:56:36;90454.91;;;19.91;75.06
9935;BME280;5006;41.828;23.478;2022-08-11T02:57:49;90467.38;;;19.42;76.29
9935;BME280;5006;41.828;23.478;2022-08-11T02:59:02;90467.59;;;19.48;76.56
9935;BME280;5006;41.828;23.478;2022-08-11T03:00:29;90479.25;;;19.48;76.70
9935;BME280;5006;41.828;23.478;2022-08-11T03:01:44;90472.16;;;19.26;77.15
9935;BME280;5006;41.828;23.478;2022-08-11T03:02:59;90471.53;;;19.47;76.29
9935;BME280;5006;41.828;23.478;2022-08-11T03:04:16;90470.31;;;20.19;74.11
9935;BME280;5006;41.828;23.478;2022-08-11T03:05:30;90470.66;;;20.42;72.90
9935;BME280;5006;41.828;23.478;2022-08-11T03:06:40;90471.59;;;19.68;73.88
9935;BME280;5006;41.828;23.478;2022-08-11T03:08:11;90470.97;;;19.39;75.20
9935;BME280;5006;41.828;23.478;2022-08-11T03:09:23;90482.53;;;19.31;76.45
9935;BME280;5006;41.828;23.478;2022-08-11T03:10:35;90473.63;;;19.02;78.23
9935;BME280;5006;41.828;23.478;2022-08-11T03:11:56;90470.28;;;19.10;78.46
9935;BME280;5006;41.828;23.478;2022-08-11T03:13:26;90474.25;;;19.22;77.39
9935;BME280;5006;41.828;23.478;2022-08-11T03:14:55;90472.47;;;19.53;75.95
9935;BME280;5006;41.828;23.478;2022-08-11T03:16:26;90469.88;;;19.74;75.00
9935;BME280;5006;41.828;23.478;2022-08-11T03:17:59;90467.56;;;19.73;74.46
9935;BME280;5006;41.828;23.478;2022-08-11T03:19:15;90466.41;;;19.49;74.62
9935;BME280;5006;41.828;23.478;2022-08-11T03:20:30;90473.34;;;19.74;74.15
9935;BME280;5006;41.828;23.478;2022-08-11T03:21:44;90470.06;;;19.79;73.82
9935;BME280;5006;41.828;23.478;2022-08-11T03:22:57;90468.38;;;19.23;75.12
9935;BME280;5006;41.828;23.478;2022-08-11T03:24:11;90466.06;;;19.22;75.80
9935;BME280;5006;41.828;23.478;2022-08-11T03:25:28;90471.53;;;19.22;76.21
9935;BME280;5006;41.828;23.478;2022-08-11T03:26:43;90467.59;;;19.23;76.57
9935;BME280;5006;41.828;23.478;2022-08-11T03:27:59;90466.81;;;19.10;77.28
9935;BME280;5006;41.828;23.478;2022-08-11T03:29:10;90468.00;;;18.55;81.09
9935;BME280;5006;41.828;23.478;2022-08-11T03:30:22;90473.59;;;18.77;81.97
9935;BME280;5006;41.828;23.478;2022-08-11T03:31:34;90477.31;;;18.95;82.46
9935;BME280;5006;41.828;23.478;2022-08-11T03:32:50;90479.25;;;18.70;82.99
9935;BME280;5006;41.828;23.478;2022-08-11T03:34:17;90479.16;;;18.45;83.49
9935;BME280;5006;41.828;23.478;2022-08-11T03:35:27;90483.41;;;18.46;82.79
9935;BME280;5006;41.828;23.478;2022-08-11T03:39:00;90479.84;;;19.15;78.66
9935;BME280;5006;41.828;23.478;2022-08-11T03:40:19;90481.91;;;19.11;78.93
9935;BME280;5006;41.828;23.478;2022-08-11T03:41:51;90473.22;;;18.91;78.96
9935;BME280;5006;41.828;23.478;2022-08-11T03:43:02;90471.38;;;19.00;78.08
9935;BME280;5006;41.828;23.478;2022-08-11T03:44:31;90476.53;;;18.82;78.62
9935;BME280;5006;41.828;23.478;2022-08-11T03:45:50;90472.13;;;19.01;78.16
9935;BME280;5006;41.828;23.478;2022-08-11T03:47:11;90477.78;;;18.94;78.23
9935;BME280;5006;41.828;23.478;2022-08-11T03:48:26;90475.69;;;18.85;78.95
9935;BME280;5006;41.828;23.478;2022-08-11T03:49:43;90477.78;;;19.06;78.52
9935;BME280;5006;41.828;23.478;2022-08-11T03:50:57;90472.81;;;19.17;77.88
9935;BME280;5006;41.828;23.478;2022-08-11T03:52:15;90470.16;;;19.01;78.25
9935;BME280;5006;41.828;23.478;2022-08-11T03:53:38;90476.31;;;19.18;77.36
9935;BME280;5006;41.828;23.478;2022-08-11T03:54:54;90472.53;;;18.87;77.47
9935;BME280;5006;41.828;23.478;2022-08-11T03:56:43;90472.44;;;18.78;79.20
9935;BME280;5006;41.828;23.478;2022-08-11T04:00:02;90469.69;;;19.44;76.64
9935;BME280;5006;41.828;23.478;2022-08-11T04:02:02;90469.34;;;18.76;78.31
9935;BME280;5006;41.828;23.478;2022-08-11T04:03:56;90472.44;;;18.78;77.88
9935;BME280;5006;41.828;23.478;2022-08-11T04:05:26;90466.56;;;19.04;78.61
9935;BME280;5006;41.828;23.478;2022-08-11T04:07:17;90467.88;;;18.87;78.16
9935;BME280;5006;41.828;23.478;2022-08-11T04:10:45;90464.72;;;19.14;75.37
9935;BME280;5006;41.828;23.478;2022-08-11T04:12:38;90453.34;;;19.44;73.54
9935;BME280;5006;41.828;23.478;2022-08-11T04:16:14;90463.38;;;19.22;74.64
9935;BME280;5006;41.828;23.478;2022-08-11T04:17:48;90466.72;;;19.51;73.35
9935;BME280;5006;41.828;23.478;2022-08-11T04:21:11;90458.03;;;19.56;72.31
9935;BME280;5006;41.828;23.478;2022-08-11T04:22:52;90463.03;;;19.45;71.98
9935;BME280;5006;41.828;23.478;2022-08-11T04:24:26;90467.38;;;19.42;72.13
9935;BME280;5006;41.828;23.478;2022-08-11T04:29:17;90465.97;;;19.38;75.57
9935;BME280;5006;41.828;23.478;2022-08-11T04:30:43;90468.78;;;19.59;73.54
9935;BME280;5006;41.828;23.478;2022-08-11T04:32:13;90471.63;;;19.43;72.95
9935;BME280;5006;41.828;23.478;2022-08-11T04:33:48;90481.63;;;19.46;80.02
9935;BME280;5006;41.828;23.478;2022-08-11T04:35:12;90480.81;;;18.96;84.63
9935;BME280;5006;41.828;23.478;2022-08-11T04:36:50;90492.22;;;18.91;91.66
9935;BME280;5006;41.828;23.478;2022-08-11T04:38:37;90486.72;;;19.07;93.88
9935;BME280;5006;41.828;23.478;2022-08-11T04:40:12;90483.34;;;19.15;93.46
9935;BME280;5006;41.828;23.478;2022-08-11T04:42:00;90478.03;;;19.37;91.87
9935;BME280;5006;41.828;23.478;2022-08-11T04:44:16;90484.63;;;19.85;87.71
9935;BME280;5006;41.828;23.478;2022-08-11T04:45:39;90486.41;;;19.79;89.69
9935;BME280;5006;41.828;23.478;2022-08-11T04:47:06;90487.16;;;19.80;88.56
9935;BME280;5006;41.828;23.478;2022-08-11T04:48:56;90488.22;;;20.41;86.03
9935;BME280;5006;41.828;23.478;2022-08-11T04:50:29;90482.41;;;20.18;84.62
9935;BME280;5006;41.828;23.478;2022-08-11T04:52:14;90490.47;;;20.21;84.64
9935;BME280;5006;41.828;23.478;2022-08-11T04:53:56;90485.34;;;20.23;84.85
9935;BME280;5006;41.828;23.478;2022-08-11T04:55:50;90491.47;;;20.15;84.47
9935;BME280;5006;41.828;23.478;2022-08-11T04:57:32;90491.31;;;20.31;84.64
9935;BME280;5006;41.828;23.478;2022-08-11T04:59:31;90487.97;;;20.14;84.75
9935;BME280;5006;41.828;23.478;2022-08-11T05:01:19;90488.28;;;20.50;82.46
9935;BME280;5006;41.828;23.478;2022-08-11T05:04:42;90486.81;;;20.92;79.34
9935;BME280;5006;41.828;23.478;2022-08-11T05:06:34;90483.03;;;20.90;76.43
9935;BME280;5006;41.828;23.478;2022-08-11T05:08:19;90483.16;;;20.74;76.55
9935;BME280;5006;41.828;23.478;2022-08-11T05:10:05;90479.13;;;21.00;75.77
9935;BME280;5006;41.828;23.478;2022-08-11T05:12:54;90474.03;;;21.41;73.56
9935;BME280;5006;41.828;23.478;2022-08-11T05:14:29;90479.25;;;21.79;72.92
9935;BME280;5006;41.828;23.478;2022-08-11T05:15:57;90486.28;;;22.07;71.99
9935;BME280;5006;41.828;23.478;2022-08-11T05:17:26;90484.91;;;22.02;71.80
9935;BME280;5006;41.828;23.478;2022-08-11T05:18:53;90483.00;;;23.01;69.33
9935;BME280;5006;41.828;23.478;2022-08-11T05:20:20;90473.13;;;23.22;68.27
9935;BME280;5006;41.828;23.478;2022-08-11T05:21:52;90471.94;;;23.14;67.47
9935;BME280;5006;41.828;23.478;2022-08-11T05:23:17;90472.53;;;23.00;67.60
9935;BME280;5006;41.828;23.478;2022-08-11T05:24:49;90475.72;;;22.89;67.07
9935;BME280;5006;41.828;23.478;2022-08-11T05:26:16;90475.91;;;22.77;67.51
9935;BME280;5006;41.828;23.478;2022-08-11T05:28:00;90469.50;;;22.71;67.74
9935;BME280;5006;41.828;23.478;2022-08-11T05:29:39;90469.94;;;23.23;66.43
9935;BME280;5006;41.828;23.478;2022-08-11T05:31:10;90472.97;;;23.76;64.47
9935;BME280;5006;41.828;23.478;2022-08-11T05:32:35;90471.44;;;23.84;63.22
9935;BME280;5006;41.828;23.478;2022-08-11T05:34:02;90466.47;;;24.06;62.92
9935;BME280;5006;41.828;23.478;2022-08-11T05:35:38;90469.81;;;24.56;61.39
9935;BME280;5006;41.828;23.478;2022-08-11T05:36:48;90469.00;;;24.42;61.43
9935;BME280;5006;41.828;23.478;2022-08-11T05:37:54;90463.78;;;24.43;61.35
9935;BME280;5006;41.828;23.478;2022-08-11T05:39:43;90471.53;;;23.98;62.76
9935;BME280;5006;41.828;23.478;2022-08-11T05:41:10;90467.84;;;24.01;62.82
9935;BME280;5006;41.828;23.478;2022-08-11T05:42:38;90470.72;;;23.65;63.03
9935;BME280;5006;41.828;23.478;2022-08-11T05:44:21;90466.91;;;23.12;64.90
9935;BME280;5006;41.828;23.478;2022-08-11T05:45:55;90468.66;;;23.93;63.23
9935;BME280;5006;41.828;23.478;2022-08-11T05:47:26;90466.47;;;24.06;62.28
9935;BME280;5006;41.828;23.478;2022-08-11T05:48:57;90469.16;;;23.82;64.21
9935;BME280;5006;41.828;23.478;2022-08-11T05:50:22;90469.91;;;24.15;64.32
9935;BME280;5006;41.828;23.478;2022-08-11T05:51:51;90464.13;;;23.90;64.63
9935;BME280;5006;41.828;23.478;2022-08-11T05:53:15;90474.06;;;24.34;64.00
9935;BME280;5006;41.828;23.478;2022-08-11T05:54:41;90466.66;;;24.49;63.34
9935;BME280;5006;41.828;23.478;2022-08-11T05:56:07;90467.53;;;24.08;64.45
9935;BME280;5006;41.828;23.478;2022-08-11T05:57:29;90463.41;;;24.50;63.81
9935;BME280;5006;41.828;23.478;2022-08-11T05:58:41;90461.50;;;24.89;62.71
9935;BME280;5006;41.828;23.478;2022-08-11T05:59:47;90456.75;;;24.89;62.52
9935;BME280;5006;41.828;23.478;2022-08-11T06:00:55;90464.16;;;24.98;62.06
9935;BME280;5006;41.828;23.478;2022-08-11T06:02:16;90467.41;;;25.11;61.08
9935;BME280;5006;41.828;23.478;2022-08-11T06:03:28;90460.69;;;25.26;60.13
9935;BME280;5006;41.828;23.478;2022-08-11T06:04:57;90463.41;;;25.12;60.06
9935;BME280;5006;41.828;23.478;2022-08-11T06:06:07;90464.03;;;25.45;60.44
9935;BME280;5006;41.828;23.478;2022-08-11T06:07:29;90464.88;;;25.94;59.46
9935;BME280;5006;41.828;23.478;2022-08-11T06:09:02;90463.84;;;25.63;59.33
9935;BME280;5006;41.828;23.478;2022-08-11T06:10:27;90469.97;;;26.01;58.73
9935;BME280;5006;41.828;23.478;2022-08-11T06:11:46;90462.13;;;25.65;59.50
9935;BME280;5006;41.828;23.478;2022-08-11T06:12:52;90465.34;;;25.93;58.36
9935;BME280;5006;41.828;23.478;2022-08-11T06:14:20;90467.06;;;25.76;58.91
9935;BME280;5006;41.828;23.478;2022-08-11T06:15:33;90462.69;;;25.69;58.82
9935;BME280;5006;41.828;23.478;2022-08-11T06:16:49;90468.38;;;25.51;59.12
9935;BME280;5006;41.828;23.478;2022-08-11T06:18:00;90463.66;;;25.23;59.43
9935;BME280;5006;41.828;23.478;2022-08-11T06:19:12;90467.78;;;25.18;58.66
9935;BME280;5006;41.828;23.478;2022-08-11T06:20:22;90469.25;;;25.57;58.95
9935;BME280;5006;41.828;23.478;2022-08-11T06:21:33;90466.66;;;25.97;57.84
9935;BME280;5006;41.828;23.478;2022-08-11T06:22:44;90464.03;;;25.45;59.20
9935;BME280;5006;41.828;23.478;2022-08-11T06:23:51;90465.78;;;26.06;58.00
9935;BME280;5006;41.828;23.478;2022-08-11T06:24:59;90463.84;;;25.48;57.30
9935;BME280;5006;41.828;23.478;2022-08-11T06:26:07;90474.81;;;25.77;56.20
9935;BME280;5006;41.828;23.478;2022-08-11T06:27:18;90465.63;;;25.51;57.96
9935;BME280;5006;41.828;23.478;2022-08-11T06:28:29;90467.25;;;25.87;56.64
9935;BME280;5006;41.828;23.478;2022-08-11T06:29:36;90458.72;;;25.70;57.80
9935;BME280;5006;41.828;23.478;2022-08-11T06:30:45;90465.72;;;25.71;57.06
9935;BME280;5006;41.828;23.478;2022-08-11T06:31:54;90461.19;;;25.54;57.25
9935;BME280;5006;41.828;23.478;2022-08-11T06:33:03;90457.72;;;25.15;58.25
9935;BME280;5006;41.828;23.478;2022-08-11T06:34:14;90460.69;;;25.84;57.46
9935;BME280;5006;41.828;23.478;2022-08-11T06:35:36;90457.19;;;25.98;57.09
9935;BME280;5006;41.828;23.478;2022-08-11T06:36:49;90456.28;;;25.43;58.22
9935;BME280;5006;41.828;23.478;2022-08-11T06:38:06;90466.06;;;26.08;57.13
9935;BME280;5006;41.828;23.478;2022-08-11T06:39:21;90458.53;;;26.57;56.04
9935;BME280;5006;41.828;23.478;2022-08-11T06:40:42;90464.78;;;25.74;56.89
9935;BME280;5006;41.828;23.478;2022-08-11T06:42:15;90470.66;;;25.96;56.56
9935;BME280;5006;41.828;23.478;2022-08-11T06:43:29;90460.13;;;25.51;57.31
9935;BME280;5006;41.828;23.478;2022-08-11T06:44:47;90465.16;;;25.24;57.93
9935;BME280;5006;41.828;23.478;2022-08-11T06:45:59;90464.69;;;24.73;58.69
9935;BME280;5006;41.828;23.478;2022-08-11T06:47:08;90455.53;;;25.05;57.93
9935;BME280;5006;41.828;23.478;2022-08-11T06:48:15;90461.31;;;24.92;57.51
9935;BME280;5006;41.828;23.478;2022-08-11T06:49:32;90461.38;;;25.21;57.08
9935;BME280;5006;41.828;23.478;2022-08-11T06:51:00;90463.13;;;24.48;57.34
9935;BME280;5006;41.828;23.478;2022-08-11T06:52:18;90465.91;;;25.53;55.65
9935;BME280;5006;41.828;23.478;2022-08-11T06:53:32;90458.84;;;24.94;55.98
9935;BME280;5006;41.828;23.478;2022-08-11T06:54:42;90463.53;;;25.75;54.84
9935;BME280;5006;41.828;23.478;2022-08-11T06:55:48;90467.09;;;26.10;53.60
9935;BME280;5006;41.828;23.478;2022-08-11T06:57:13;90463.84;;;25.63;55.08
9935;BME280;5006;41.828;23.478;2022-08-11T06:58:40;90466.88;;;25.50;55.13
9935;BME280;5006;41.828;23.478;2022-08-11T07:00:05;90453.06;;;25.30;55.49
9935;BME280;5006;41.828;23.478;2022-08-11T07:01:36;90463.38;;;25.35;55.78
9935;BME280;5006;41.828;23.478;2022-08-11T07:02:53;90458.34;;;25.34;55.48
9935;BME280;5006;41.828;23.478;2022-08-11T07:04:06;90463.22;;;25.15;55.59
9935;BME280;5006;41.828;23.478;2022-08-11T07:05:17;90455.09;;;25.06;55.67
9935;BME280;5006;41.828;23.478;2022-08-11T07:06:32;90454.28;;;24.77;56.36
9935;BME280;5006;41.828;23.478;2022-08-11T07:08:07;90459.66;;;25.53;54.76
9935;BME280;5006;41.828;23.478;2022-08-11T07:12:05;90454.09;;;24.80;56.65
9935;BME280;5006;41.828;23.478;2022-08-11T07:13:35;90451.97;;;24.75;57.34
9935;BME280;5006;41.828;23.478;2022-08-11T07:15:03;90450.28;;;24.78;56.92
9935;BME280;5006;41.828;23.478;2022-08-11T07:16:30;90448.09;;;25.05;56.73
9935;BME280;5006;41.828;23.478;2022-08-11T07:17:43;90447.59;;;24.92;56.53
9935;BME280;5006;41.828;23.478;2022-08-11T07:18:54;90450.16;;;25.10;55.92
9935;BME280;5006;41.828;23.478;2022-08-11T07:20:23;90452.63;;;25.08;56.25
9935;BME280;5006;41.828;23.478;2022-08-11T07:21:46;90448.72;;;24.86;56.18
9935;BME280;5006;41.828;23.478;2022-08-11T07:23:12;90452.88;;;24.96;56.65
9935;BME280;5006;41.828;23.478;2022-08-11T07:24:38;90445.94;;;25.24;55.51
9935;BME280;5006;41.828;23.478;2022-08-11T07:26:02;90452.38;;;25.93;53.91
9935;BME280;5006;41.828;23.478;2022-08-11T07:27:30;90454.91;;;25.97;53.81
9935;BME280;5006;41.828;23.478;2022-08-11T07:28:54;90454.13;;;25.82;54.43
9935;BME280;5006;41.828;23.478;2022-08-11T07:30:05;90455.13;;;25.93;54.30
9935;BME280;5006;41.828;23.478;2022-08-11T07:31:16;90449.47;;;26.02;53.93
9935;BME280;5006;41.828;23.478;2022-08-11T07:32:26;90452.22;;;26.37;53.29
9935;BME280;5006;41.828;23.478;2022-08-11T07:33:41;90442.78;;;25.60;54.78
9935;BME280;5006;41.828;23.478;2022-08-11T07:34:51;90450.97;;;25.54;54.94
9935;BME280;5006;41.828;23.478;2022-08-11T07:36:03;90450.34;;;25.79;54.40
9935;BME280;5006;41.828;23.478;2022-08-11T07:37:10;90446.19;;;25.98;54.35
9935;BME280;5006;41.828;23.478;2022-08-11T07:38:20;90443.88;;;26.11;54.02
9935;BME280;5006;41.828;23.478;2022-08-11T07:39:30;90448.50;;;25.56;54.81
9935;BME280;5006;41.828;23.478;2022-08-11T07:40:37;90442.78;;;25.60;54.76
9935;BME280;5006;41.828;23.478;2022-08-11T07:41:44;90445.63;;;25.65;54.89
9935;BME280;5006;41.828;23.478;2022-08-11T07:42:52;90446.66;;;26.31;53.91
9935;BME280;5006;41.828;23.478;2022-08-11T07:44:00;90458.09;;;26.10;53.65
9935;BME280;5006;41.828;23.478;2022-08-11T07:45:12;90457.16;;;25.84;54.09
9935;BME280;5006;41.828;23.478;2022-08-11T07:46:40;90451.59;;;26.27;53.29
9935;BME280;5006;41.828;23.478;2022-08-11T07:48:05;90448.94;;;25.98;53.72
9935;BME280;5006;41.828;23.478;2022-08-11T07:49:31;90452.91;;;26.86;52.19
9935;BME280;5006;41.828;23.478;2022-08-11T07:50:55;90445.97;;;26.51;53.13
9935;BME280;5006;41.828;23.478;2022-08-11T07:52:21;90449.47;;;26.02;53.14
9935;BME280;5006;41.828;23.478;2022-08-11T07:53:37;90446.50;;;26.20;52.88
9935;BME280;5006;41.828;23.478;2022-08-11T07:54:43;90446.16;;;26.67;51.54
9935;BME280;5006;41.828;23.478;2022-08-11T07:55:52;90446.00;;;26.96;50.78